sensor_id;sensor_type;location;lat;lon;timestamp;pressure;altitude;pressure_sealevel;temperature;humidity
71643;BME280;59438;45.014;39.006;2022-08-19T00:01:39;100486.53;;;23.50;73.99
71643;BME280;59438;45.014;39.006;2022-08-19T00:04:07;100493.88;;;23.48;73.81
71643;BME280;59438;45.014;39.006;2022-08-19T00:06:35;100493.31;;;23.44;73.99
71643;BME280;59438;45.014;39.006;2022-08-19T00:09:04;100486.69;;;23.39;74.20
71643;BME280;59438;45.014;39.006;2022-08-19T00:11:33;100485.31;;;23.34;74.38
71643;BME280;59438;45.014;39.006;2022-08-19T00:13:59;100488.16;;;23.33;74.34
71643;BME280;59438;45.014;39.006;2022-08-19T00:16:26;100478.72;;;23.29;74.32
71643;BME280;59438;45.014;39.006;2022-08-19T00:18:52;100484.34;;;23.26;74.26
71643;BME280;59438;45.014;39.006;2022-08-19T00:21:19;100487.16;;;23.24;74.30
71643;BME280;59438;45.014;39.006;2022-08-19T00:23:45;100485.63;;;23.22;74.34
71643;BME280;59438;45.014;39.006;2022-08-19T00:26:12;100481.41;;;23.19;74.64
71643;BME280;59438;45.014;39.006;2022-08-19T00:28:40;100488.72;;;23.17;75.05
71643;BME280;59438;45.014;39.006;2022-08-19T00:31:07;100484.53;;;23.15;74.79
71643;BME280;59438;45.014;39.006;2022-08-19T00:33:34;100489.88;;;23.15;74.73
71643;BME280;59438;45.014;39.006;2022-08-19T00:36:01;100491.69;;;23.14;74.60
71643;BME280;59438;45.014;39.006;2022-08-19T00:38:28;100481.13;;;23.12;75.15
71643;BME280;59438;45.014;39.006;2022-08-19T00:40:55;100488.47;;;23.10;75.26
71643;BME280;59438;45.014;39.006;2022-08-19T00:43:23;100471.94;;;22.96;75.51
71643;BME280;59438;45.014;39.006;2022-08-19T00:45:51;100491.41;;;23.07;75.58
71643;BME280;59438;45.014;39.006;2022-08-19T00:48:18;100481.00;;;23.04;75.25
71643;BME280;59438;45.014;39.006;2022-08-19T00:50:46;100485.91;;;22.99;75.24
71643;BME280;59438;45.014;39.006;2022-08-19T00:53:16;100490.28;;;23.00;75.81
71643;BME280;59438;45.014;39.006;2022-08-19T00:55:46;100492.25;;;22.98;75.74
71643;BME280;59438;45.014;39.006;2022-08-19T00:58:15;100499.44;;;22.98;76.06
71643;BME280;59438;45.014;39.006;2022-08-19T01:00:42;100505.91;;;22.95;75.41
71643;BME280;59438;45.014;39.006;2022-08-19T01:03:13;100503.38;;;22.93;76.19
71643;BME280;59438;45.014;39.006;2022-08-19T01:05:42;100499.16;;;22.91;75.84
71643;BME280;59438;45.014;39.006;2022-08-19T01:08:09;100511.56;;;22.92;75.66
71643;BME280;59438;45.014;39.006;2022-08-19T01:10:41;100502.66;;;22.91;75.85
71643;BME280;59438;45.014;39.006;2022-08-19T01:13:10;100500.16;;;22.90;75.52
71643;BME280;59438;45.014;39.006;2022-08-19T01:15:42;100475.78;;;22.73;75.72
71643;BME280;59438;45.014;39.006;2022-08-19T01:18:13;100508.59;;;22.85;75.59
71643;BME280;59438;45.014;39.006;2022-08-19T01:20:42;100497.75;;;22.77;75.56
71643;BME280;59438;45.014;39.006;2022-08-19T01:23:10;100505.78;;;22.77;75.68
71643;BME280;59438;45.014;39.006;2022-08-19T01:25:42;100496.88;;;22.67;75.93
71643;BME280;59438;45.014;39.006;2022-08-19T01:28:15;100502.81;;;22.70;76.18
71643;BME280;59438;45.014;39.006;2022-08-19T01:30:41;100507.59;;;22.67;75.56
71643;BME280;59438;45.014;39.006;2022-08-19T01:33:08;100506.47;;;22.60;75.63
71643;BME280;59438;45.014;39.006;2022-08-19T01:35:35;100507.44;;;22.59;75.95
71643;BME280;59438;45.014;39.006;2022-08-19T01:38:04;100496.19;;;22.55;76.14
71643;BME280;59438;45.014;39.006;2022-08-19T01:40:32;100494.63;;;22.52;76.12
71643;BME280;59438;45.014;39.006;2022-08-19T01:43:00;100487.72;;;22.50;75.81
71643;BME280;59438;45.014;39.006;2022-08-19T01:45:28;100489.00;;;22.46;76.31
71643;BME280;59438;45.014;39.006;2022-08-19T01:47:56;100505.75;;;22.48;76.21
71643;BME280;59438;45.014;39.006;2022-08-19T01:50:23;100500.81;;;22.43;76.07
71643;BME280;59438;45.014;39.006;2022-08-19T01:52:50;100504.63;;;22.41;76.11
71643;BME280;59438;45.014;39.006;2022-08-19T01:55:19;100497.88;;;22.37;76.59
71643;BME280;59438;45.014;39.006;2022-08-19T01:57:49;100491.91;;;22.23;77.21
71643;BME280;59438;45.014;39.006;2022-08-19T02:00:18;100494.47;;;22.25;76.71
71643;BME280;59438;45.014;39.006;2022-08-19T02:02:45;100511.78;;;22.30;76.36
71643;BME280;59438;45.014;39.006;2022-08-19T02:05:11;100511.22;;;22.27;76.43
71643;BME280;59438;45.014;39.006;2022-08-19T02:07:39;100498.84;;;22.26;76.62
71643;BME280;59438;45.014;39.006;2022-08-19T02:10:08;100505.03;;;22.26;76.82
71643;BME280;59438;45.014;39.006;2022-08-19T02:12:35;100505.88;;;22.27;76.86
71643;BME280;59438;45.014;39.006;2022-08-19T02:15:04;100517.16;;;22.30;77.27
71643;BME280;59438;45.014;39.006;2022-08-19T02:17:30;100508.41;;;22.28;76.76
71643;BME280;59438;45.014;39.006;2022-08-19T02:19:57;100507.16;;;22.32;76.62
71643;BME280;59438;45.014;39.006;2022-08-19T02:22:24;100512.34;;;22.34;76.52
71643;BME280;59438;45.014;39.006;2022-08-19T02:24:51;100517.56;;;22.36;76.49
71643;BME280;59438;45.014;39.006;2022-08-19T02:27:18;100519.28;;;22.37;76.42
71643;BME280;59438;45.014;39.006;2022-08-19T02:29:46;100526.16;;;22.39;76.75
71643;BME280;59438;45.014;39.006;2022-08-19T02:32:14;100521.53;;;22.41;76.62
71643;BME280;59438;45.014;39.006;2022-08-19T02:34:41;100522.94;;;22.45;76.25
71643;BME280;59438;45.014;39.006;2022-08-19T02:37:07;100527.16;;;22.48;76.02
71643;BME280;59438;45.014;39.006;2022-08-19T02:39:34;100527.03;;;22.49;76.12
71643;BME280;59438;45.014;39.006;2022-08-19T02:42:00;100536.03;;;22.48;75.89
71643;BME280;59438;45.014;39.006;2022-08-19T02:44:26;100537.88;;;22.48;75.99
71643;BME280;59438;45.014;39.006;2022-08-19T02:46:53;100534.47;;;22.46;75.71
71643;BME280;59438;45.014;39.006;2022-08-19T02:49:21;100531.09;;;22.44;76.13
71643;BME280;59438;45.014;39.006;2022-08-19T02:51:56;100537.03;;;22.47;76.41
71643;BME280;59438;45.014;39.006;2022-08-19T02:54:22;100529.84;;;22.48;75.93
71643;BME280;59438;45.014;39.006;2022-08-19T02:56:49;100529.84;;;22.48;75.78
71643;BME280;59438;45.014;39.006;2022-08-19T02:59:15;100532.53;;;22.48;75.88
71643;BME280;59438;45.014;39.006;2022-08-19T03:01:41;100534.34;;;22.47;75.80
71643;BME280;59438;45.014;39.006;2022-08-19T03:04:10;100536.19;;;22.47;76.01
71643;BME280;59438;45.014;39.006;2022-08-19T03:06:39;100541.53;;;22.47;76.15
71643;BME280;59438;45.014;39.006;2022-08-19T03:09:06;100545.06;;;22.47;75.95
71643;BME280;59438;45.014;39.006;2022-08-19T03:11:33;100543.22;;;22.48;76.09
71643;BME280;59438;45.014;39.006;2022-08-19T03:14:01;100551.13;;;22.49;75.92
71643;BME280;59438;45.014;39.006;2022-08-19T03:16:29;100540.13;;;22.52;76.04
71643;BME280;59438;45.014;39.006;2022-08-19T03:18:57;100545.34;;;22.54;75.83
71643;BME280;59438;45.014;39.006;2022-08-19T03:21:25;100542.81;;;22.52;75.72
71643;BME280;59438;45.014;39.006;2022-08-19T03:23:56;100552.41;;;22.55;75.78
71643;BME280;59438;45.014;39.006;2022-08-19T03:26:22;100548.72;;;22.56;75.45
71643;BME280;59438;45.014;39.006;2022-08-19T03:28:48;100550.56;;;22.56;75.53
71643;BME280;59438;45.014;39.006;2022-08-19T03:31:17;100549.56;;;22.57;75.55
71643;BME280;59438;45.014;39.006;2022-08-19T03:33:44;100546.75;;;22.58;75.49
71643;BME280;59438;45.014;39.006;2022-08-19T03:36:13;100525.63;;;22.45;75.64
71643;BME280;59438;45.014;39.006;2022-08-19T03:38:41;100529.84;;;22.48;75.56
71643;BME280;59438;45.014;39.006;2022-08-19T03:41:11;100553.28;;;22.65;75.58
71643;BME280;59438;45.014;39.006;2022-08-19T03:43:39;100553.53;;;22.62;75.33
71643;BME280;59438;45.014;39.006;2022-08-19T03:46:09;100556.22;;;22.62;75.07
71643;BME280;59438;45.014;39.006;2022-08-19T03:48:37;100552.00;;;22.60;75.00
71643;BME280;59438;45.014;39.006;2022-08-19T03:51:04;100555.50;;;22.60;75.12
71643;BME280;59438;45.014;39.006;2022-08-19T03:53:32;100539.28;;;22.52;74.74
71643;BME280;59438;45.014;39.006;2022-08-19T03:55:59;100555.53;;;22.70;75.27
71643;BME280;59438;45.014;39.006;2022-08-19T03:58:28;100569.50;;;22.73;74.92
71643;BME280;59438;45.014;39.006;2022-08-19T04:00:55;100565.53;;;22.78;74.72
71643;BME280;59438;45.014;39.006;2022-08-19T04:03:21;100565.38;;;22.79;74.61
71643;BME280;59438;45.014;39.006;2022-08-19T04:05:48;100561.72;;;22.80;74.45
71643;BME280;59438;45.014;39.006;2022-08-19T04:08:15;100575.84;;;22.82;74.63
71643;BME280;59438;45.014;39.006;2022-08-19T04:10:42;100573.16;;;22.82;74.99
71643;BME280;59438;45.014;39.006;2022-08-19T04:13:08;100593.31;;;22.86;74.88
71643;BME280;59438;45.014;39.006;2022-08-19T04:15:39;100595.69;;;22.89;75.07
71643;BME280;59438;45.014;39.006;2022-08-19T04:18:06;100599.78;;;22.93;74.51
71643;BME280;59438;45.014;39.006;2022-08-19T04:20:32;100598.38;;;22.99;74.49
71643;BME280;59438;45.014;39.006;2022-08-19T04:22:58;100594.47;;;23.03;74.60
71643;BME280;59438;45.014;39.006;2022-08-19T04:25:24;100589.69;;;23.07;74.48
71643;BME280;59438;45.014;39.006;2022-08-19T04:27:51;100584.91;;;23.10;74.44
71643;BME280;59438;45.014;39.006;2022-08-19T04:30:17;100578.28;;;23.15;74.12
71643;BME280;59438;45.014;39.006;2022-08-19T04:32:45;100572.75;;;23.16;73.92
71643;BME280;59438;45.014;39.006;2022-08-19T04:35:12;100578.69;;;23.20;74.02
71643;BME280;59438;45.014;39.006;2022-08-19T04:37:38;100576.28;;;23.26;73.65
71643;BME280;59438;45.014;39.006;2022-08-19T04:40:06;100582.91;;;23.32;73.75
71643;BME280;59438;45.014;39.006;2022-08-19T04:42:32;100580.66;;;23.37;73.93
71643;BME280;59438;45.014;39.006;2022-08-19T04:44:59;100574.16;;;23.40;73.67
71643;BME280;59438;45.014;39.006;2022-08-19T04:47:25;100584.44;;;23.44;73.49
71643;BME280;59438;45.014;39.006;2022-08-19T04:49:53;100593.91;;;23.48;73.75
71643;BME280;59438;45.014;39.006;2022-08-19T04:52:19;100602.38;;;23.53;73.56
71643;BME280;59438;45.014;39.006;2022-08-19T04:54:46;100603.78;;;23.58;73.41
71643;BME280;59438;45.014;39.006;2022-08-19T04:57:12;100601.34;;;23.64;73.04
71643;BME280;59438;45.014;39.006;2022-08-19T04:59:39;100587.06;;;23.73;72.68
71643;BME280;59438;45.014;39.006;2022-08-19T05:02:06;100580.00;;;23.82;72.87
71643;BME280;59438;45.014;39.006;2022-08-19T05:04:33;100580.28;;;23.89;72.52
71643;BME280;59438;45.014;39.006;2022-08-19T05:07:01;100582.22;;;23.97;73.00
71643;BME280;59438;45.014;39.006;2022-08-19T05:09:28;100579.25;;;24.00;72.32
71643;BME280;59438;45.014;39.006;2022-08-19T05:11:54;100578.13;;;24.02;72.79
71643;BME280;59438;45.014;39.006;2022-08-19T05:14:20;100578.94;;;24.03;72.71
71643;BME280;59438;45.014;39.006;2022-08-19T05:16:47;100576.69;;;24.08;72.40
71643;BME280;59438;45.014;39.006;2022-08-19T05:19:13;100569.03;;;24.13;71.90
71643;BME280;59438;45.014;39.006;2022-08-19T05:21:41;100572.69;;;24.22;72.27
71643;BME280;59438;45.014;39.006;2022-08-19T05:24:09;100573.91;;;24.27;70.75
71643;BME280;59438;45.014;39.006;2022-08-19T05:26:36;100584.03;;;24.33;71.32
71643;BME280;59438;45.014;39.006;2022-08-19T05:29:03;100588.13;;;24.38;70.46
71643;BME280;59438;45.014;39.006;2022-08-19T05:31:30;100585.16;;;24.41;70.66
71643;BME280;59438;45.014;39.006;2022-08-19T05:33:57;100594.03;;;24.51;70.63
71643;BME280;59438;45.014;39.006;2022-08-19T05:36:23;100594.97;;;24.60;70.44
71643;BME280;59438;45.014;39.006;2022-08-19T05:38:50;100581.63;;;24.68;70.48
71643;BME280;59438;45.014;39.006;2022-08-19T05:41:18;100585.09;;;24.78;69.59
71643;BME280;59438;45.014;39.006;2022-08-19T05:43:44;100587.56;;;24.89;69.92
71643;BME280;59438;45.014;39.006;2022-08-19T05:46:16;100588.50;;;24.98;69.04
71643;BME280;59438;45.014;39.006;2022-08-19T05:48:44;100577.28;;;25.03;69.10
71643;BME280;59438;45.014;39.006;2022-08-19T05:51:10;100583.34;;;25.05;68.84
71643;BME280;59438;45.014;39.006;2022-08-19T05:53:37;100597.59;;;25.05;69.28
71643;BME280;59438;45.014;39.006;2022-08-19T05:56:04;100581.13;;;25.00;68.51
71643;BME280;59438;45.014;39.006;2022-08-19T05:58:33;100598.44;;;25.06;68.10
71643;BME280;59438;45.014;39.006;2022-08-19T06:00:59;100605.66;;;25.05;68.55
71643;BME280;59438;45.014;39.006;2022-08-19T06:03:25;100606.75;;;25.12;69.00
71643;BME280;59438;45.014;39.006;2022-08-19T06:05:52;100616.19;;;25.34;68.85
71643;BME280;59438;45.014;39.006;2022-08-19T06:08:19;100605.81;;;25.58;67.32
71643;BME280;59438;45.014;39.006;2022-08-19T06:10:46;100601.19;;;25.68;67.07
71643;BME280;59438;45.014;39.006;2022-08-19T06:13:12;100597.28;;;25.62;67.54
71643;BME280;59438;45.014;39.006;2022-08-19T06:15:40;100604.50;;;25.62;67.33
71643;BME280;59438;45.014;39.006;2022-08-19T06:18:06;100613.03;;;25.57;67.93
71643;BME280;59438;45.014;39.006;2022-08-19T06:20:32;100609.97;;;25.52;67.59
71643;BME280;59438;45.014;39.006;2022-08-19T06:22:59;100604.19;;;25.47;67.11
71643;BME280;59438;45.014;39.006;2022-08-19T06:25:25;100614.28;;;25.45;67.50
71643;BME280;59438;45.014;39.006;2022-08-19T06:27:51;100616.13;;;25.44;66.96
71643;BME280;59438;45.014;39.006;2022-08-19T06:30:18;100615.28;;;25.44;67.47
71643;BME280;59438;45.014;39.006;2022-08-19T06:32:45;100617.81;;;25.45;66.85
71643;BME280;59438;45.014;39.006;2022-08-19T06:35:12;100621.50;;;25.44;67.48
71643;BME280;59438;45.014;39.006;2022-08-19T06:37:38;100636.19;;;25.50;67.33
71643;BME280;59438;45.014;39.006;2022-08-19T06:40:06;100633.34;;;25.51;66.15
71643;BME280;59438;45.014;39.006;2022-08-19T06:42:32;100631.34;;;25.53;66.20
71643;BME280;59438;45.014;39.006;2022-08-19T06:44:58;100637.91;;;25.59;66.66
71643;BME280;59438;45.014;39.006;2022-08-19T06:47:25;100615.34;;;25.52;65.86
71643;BME280;59438;45.014;39.006;2022-08-19T06:49:54;100634.22;;;25.78;65.83
71643;BME280;59438;45.014;39.006;2022-08-19T06:52:21;100629.41;;;25.90;65.78
71643;BME280;59438;45.014;39.006;2022-08-19T06:54:47;100626.16;;;26.04;65.49
71643;BME280;59438;45.014;39.006;2022-08-19T06:57:13;100619.97;;;26.12;65.01
71643;BME280;59438;45.014;39.006;2022-08-19T06:59:40;100624.72;;;26.18;65.33
71643;BME280;59438;45.014;39.006;2022-08-19T07:02:06;100627.09;;;26.21;65.33
71643;BME280;59438;45.014;39.006;2022-08-19T07:04:36;100615.28;;;26.14;65.18
71643;BME280;59438;45.014;39.006;2022-08-19T07:07:08;100637.19;;;26.27;64.31
71643;BME280;59438;45.014;39.006;2022-08-19T07:09:36;100635.03;;;26.31;64.31
71643;BME280;59438;45.014;39.006;2022-08-19T07:12:05;100637.22;;;26.36;64.27
71643;BME280;59438;45.014;39.006;2022-08-19T07:14:33;100641.00;;;26.43;64.88
71643;BME280;59438;45.014;39.006;2022-08-19T07:16:59;100629.72;;;26.47;64.01
71643;BME280;59438;45.014;39.006;2022-08-19T07:19:26;100628.38;;;26.51;63.75
71643;BME280;59438;45.014;39.006;2022-08-19T07:21:55;100626.22;;;26.55;63.98
71643;BME280;59438;45.014;39.006;2022-08-19T07:24:24;100619.53;;;26.59;62.57
71643;BME280;59438;45.014;39.006;2022-08-19T07:26:51;100623.78;;;26.70;64.07
71643;BME280;59438;45.014;39.006;2022-08-19T07:29:19;100629.69;;;26.73;63.15
71643;BME280;59438;45.014;39.006;2022-08-19T07:31:45;100632.72;;;26.79;62.82
71643;BME280;59438;45.014;39.006;2022-08-19T07:34:12;100626.00;;;26.83;61.54
71643;BME280;59438;45.014;39.006;2022-08-19T07:36:41;100601.25;;;26.79;60.37
71643;BME280;59438;45.014;39.006;2022-08-19T07:39:11;100611.03;;;26.97;59.62
71643;BME280;59438;45.014;39.006;2022-08-19T07:41:40;100618.81;;;27.08;58.71
71643;BME280;59438;45.014;39.006;2022-08-19T07:44:07;100623.06;;;27.27;58.69
71643;BME280;59438;45.014;39.006;2022-08-19T07:46:36;100626.28;;;27.47;58.30
71643;BME280;59438;45.014;39.006;2022-08-19T07:49:04;100639.94;;;27.62;58.78
71643;BME280;59438;45.014;39.006;2022-08-19T07:51:31;100627.78;;;27.74;58.11
71643;BME280;59438;45.014;39.006;2022-08-19T07:53:57;100635.50;;;27.85;57.31
71643;BME280;59438;45.014;39.006;2022-08-19T07:56:23;100636.53;;;27.92;57.53
71643;BME280;59438;45.014;39.006;2022-08-19T07:58:52;100626.72;;;28.00;56.53
71643;BME280;59438;45.014;39.006;2022-08-19T08:01:21;100628.88;;;28.12;56.17
71643;BME280;59438;45.014;39.006;2022-08-19T08:03:49;100618.75;;;28.14;56.21
71643;BME280;59438;45.014;39.006;2022-08-19T08:06:16;100610.97;;;28.20;56.73
71643;BME280;59438;45.014;39.006;2022-08-19T08:08:43;100625.16;;;28.22;56.88
71643;BME280;59438;45.014;39.006;2022-08-19T08:11:09;100607.63;;;28.18;57.28
71643;BME280;59438;45.014;39.006;2022-08-19T08:13:35;100628.63;;;28.39;56.93
71643;BME280;59438;45.014;39.006;2022-08-19T08:16:04;100621.31;;;28.47;56.31
71643;BME280;59438;45.014;39.006;2022-08-19T08:18:30;100618.81;;;28.54;57.07
71643;BME280;59438;45.014;39.006;2022-08-19T08:20:57;100607.75;;;28.64;56.75
71643;BME280;59438;45.014;39.006;2022-08-19T08:23:24;100597.81;;;28.64;56.90
71643;BME280;59438;45.014;39.006;2022-08-19T08:25:52;100619.16;;;28.82;56.64
71643;BME280;59438;45.014;39.006;2022-08-19T08:28:19;100624.69;;;28.89;57.10
71643;BME280;59438;45.014;39.006;2022-08-19T08:30:46;100609.19;;;28.83;57.12
71643;BME280;59438;45.014;39.006;2022-08-19T08:33:18;100613.09;;;29.03;56.70
71643;BME280;59438;45.014;39.006;2022-08-19T08:35:44;100612.34;;;29.18;56.93
71643;BME280;59438;45.014;39.006;2022-08-19T08:38:11;100615.47;;;29.29;57.42
71643;BME280;59438;45.014;39.006;2022-08-19T08:40:43;100619.16;;;29.37;56.90
71643;BME280;59438;45.014;39.006;2022-08-19T08:43:18;100611.97;;;29.44;56.56
71643;BME280;59438;45.014;39.006;2022-08-19T08:45:48;100603.28;;;29.48;56.92
71643;BME280;59438;45.014;39.006;2022-08-19T08:48:27;100601.25;;;29.50;56.37
71643;BME280;59438;45.014;39.006;2022-08-19T08:50:58;100587.06;;;29.48;56.17
71643;BME280;59438;45.014;39.006;2022-08-19T08:53:26;100590.91;;;29.54;56.62
71643;BME280;59438;45.014;39.006;2022-08-19T08:55:53;100582.44;;;29.57;56.76
71643;BME280;59438;45.014;39.006;2022-08-19T08:58:26;100583.25;;;29.58;55.43
71643;BME280;59438;45.014;39.006;2022-08-19T09:00:54;100583.25;;;29.58;56.08
71643;BME280;59438;45.014;39.006;2022-08-19T09:03:24;100571.78;;;29.56;55.39
71643;BME280;59438;45.014;39.006;2022-08-19T09:05:56;100568.34;;;29.62;56.13
71643;BME280;59438;45.014;39.006;2022-08-19T09:08:36;100577.78;;;29.66;55.49
71643;BME280;59438;45.014;39.006;2022-08-19T09:11:07;100552.38;;;29.52;55.37
71643;BME280;59438;45.014;39.006;2022-08-19T09:13:40;100564.97;;;29.60;54.07
71643;BME280;59438;45.014;39.006;2022-08-19T09:16:11;100570.00;;;29.63;53.95
71643;BME280;59438;45.014;39.006;2022-08-19T09:18:44;100554.63;;;29.63;53.90
71643;BME280;59438;45.014;39.006;2022-08-19T09:21:11;100545.78;;;29.69;53.94
71643;BME280;59438;45.014;39.006;2022-08-19T09:23:38;100565.00;;;29.89;53.64
71643;BME280;59438;45.014;39.006;2022-08-19T09:26:08;100559.25;;;29.92;53.13
71643;BME280;59438;45.014;39.006;2022-08-19T09:28:35;100566.97;;;29.96;53.07
71643;BME280;59438;45.014;39.006;2022-08-19T09:31:01;100582.69;;;30.00;52.99
71643;BME280;59438;45.014;39.006;2022-08-19T09:33:27;100582.28;;;30.03;52.64
71643;BME280;59438;45.014;39.006;2022-08-19T09:36:03;100582.13;;;30.05;51.96
71643;BME280;59438;45.014;39.006;2022-08-19T09:38:30;100584.34;;;30.01;52.95
71643;BME280;59438;45.014;39.006;2022-08-19T09:41:02;100565.41;;;29.86;51.61
71643;BME280;59438;45.014;39.006;2022-08-19T09:43:28;100579.59;;;29.88;52.34
71643;BME280;59438;45.014;39.006;2022-08-19T09:45:55;100581.09;;;29.91;52.13
71643;BME280;59438;45.014;39.006;2022-08-19T09:48:21;100587.34;;;29.91;52.19
71643;BME280;59438;45.014;39.006;2022-08-19T09:50:47;100581.25;;;29.89;52.46
71643;BME280;59438;45.014;39.006;2022-08-19T09:53:15;100581.81;;;29.85;51.40
71643;BME280;59438;45.014;39.006;2022-08-19T09:55:42;100589.47;;;29.81;51.95
71643;BME280;59438;45.014;39.006;2022-08-19T09:58:08;100583.97;;;29.75;52.48
71643;BME280;59438;45.014;39.006;2022-08-19T10:00:37;100578.72;;;29.73;52.36
71643;BME280;59438;45.014;39.006;2022-08-19T10:03:03;100579.78;;;29.72;52.51
71643;BME280;59438;45.014;39.006;2022-08-19T10:05:30;100590.91;;;29.69;51.89
71643;BME280;59438;45.014;39.006;2022-08-19T10:07:56;100592.97;;;29.67;52.04
71643;BME280;59438;45.014;39.006;2022-08-19T10:10:25;100588.28;;;29.61;51.99
71643;BME280;59438;45.014;39.006;2022-08-19T10:12:52;100574.84;;;29.52;52.48
71643;BME280;59438;45.014;39.006;2022-08-19T10:15:18;100592.13;;;29.51;52.17
71643;BME280;59438;45.014;39.006;2022-08-19T10:17:45;100585.41;;;29.47;53.06
71643;BME280;59438;45.014;39.006;2022-08-19T10:20:11;100595.56;;;29.45;52.05
71643;BME280;59438;45.014;39.006;2022-08-19T10:22:38;100588.66;;;29.43;52.19
71643;BME280;59438;45.014;39.006;2022-08-19T10:25:06;100574.47;;;29.41;52.36
71643;BME280;59438;45.014;39.006;2022-08-19T10:27:34;100582.75;;;29.39;52.10
71643;BME280;59438;45.014;39.006;2022-08-19T10:30:01;100587.50;;;29.37;52.02
71643;BME280;59438;45.014;39.006;2022-08-19T10:32:27;100597.28;;;29.38;52.42
71643;BME280;59438;45.014;39.006;2022-08-19T10:34:54;100596.28;;;29.39;52.08
71643;BME280;59438;45.014;39.006;2022-08-19T10:37:20;100593.59;;;29.39;51.95
71643;BME280;59438;45.014;39.006;2022-08-19T10:39:47;100592.94;;;29.37;52.23
71643;BME280;59438;45.014;39.006;2022-08-19T10:42:13;100595.53;;;29.30;51.96
71643;BME280;59438;45.014;39.006;2022-08-19T10:44:42;100589.97;;;29.24;51.98
71643;BME280;59438;45.014;39.006;2022-08-19T10:47:08;100604.16;;;29.26;54.53
71643;BME280;59438;45.014;39.006;2022-08-19T10:49:35;100606.03;;;29.25;53.00
71643;BME280;59438;45.014;39.006;2022-08-19T10:52:01;100608.38;;;29.28;53.11
71643;BME280;59438;45.014;39.006;2022-08-19T10:54:28;100603.25;;;29.33;52.90
71643;BME280;59438;45.014;39.006;2022-08-19T10:56:54;100613.72;;;29.37;52.32
71643;BME280;59438;45.014;39.006;2022-08-19T10:59:24;100618.88;;;29.46;52.29
71643;BME280;59438;45.014;39.006;2022-08-19T11:01:53;100621.88;;;29.51;52.09
71643;BME280;59438;45.014;39.006;2022-08-19T11:04:20;100613.22;;;29.56;52.56
71643;BME280;59438;45.014;39.006;2022-08-19T11:06:48;100598.25;;;29.45;51.81
71643;BME280;59438;45.014;39.006;2022-08-19T11:09:15;100630.41;;;29.63;53.08
71643;BME280;59438;45.014;39.006;2022-08-19T11:11:42;100619.03;;;29.68;52.45
71643;BME280;59438;45.014;39.006;2022-08-19T11:14:09;100620.19;;;29.73;51.46
71643;BME280;59438;45.014;39.006;2022-08-19T11:16:36;100616.53;;;29.81;52.34
71643;BME280;59438;45.014;39.006;2022-08-19T11:19:05;100586.66;;;29.75;51.16
71643;BME280;59438;45.014;39.006;2022-08-19T11:21:34;100600.03;;;29.91;50.29
71643;BME280;59438;45.014;39.006;2022-08-19T11:24:03;100599.94;;;29.99;50.33
71643;BME280;59438;45.014;39.006;2022-08-19T11:26:30;100597.97;;;30.08;50.55
71643;BME280;59438;45.014;39.006;2022-08-19T11:28:57;100594.81;;;30.19;50.86
71643;BME280;59438;45.014;39.006;2022-08-19T11:31:26;100588.75;;;30.32;49.91
71643;BME280;59438;45.014;39.006;2022-08-19T11:33:53;100585.00;;;30.48;49.97
71643;BME280;59438;45.014;39.006;2022-08-19T11:36:22;100578.41;;;30.57;48.17
71643;BME280;59438;45.014;39.006;2022-08-19T11:38:49;100577.47;;;30.65;49.10
71643;BME280;59438;45.014;39.006;2022-08-19T11:41:17;100574.44;;;30.75;48.41
71643;BME280;59438;45.014;39.006;2022-08-19T11:43:44;100569.75;;;30.83;48.83
71643;BME280;59438;45.014;39.006;2022-08-19T11:46:13;100550.28;;;30.80;47.33
71643;BME280;59438;45.014;39.006;2022-08-19T11:48:40;100562.63;;;30.97;47.75
71643;BME280;59438;45.014;39.006;2022-08-19T11:51:08;100560.09;;;30.96;47.70
71643;BME280;59438;45.014;39.006;2022-08-19T11:53:37;100566.84;;;31.06;47.29
71643;BME280;59438;45.014;39.006;2022-08-19T11:56:05;100570.22;;;31.08;47.29
71643;BME280;59438;45.014;39.006;2022-08-19T11:58:32;100571.78;;;31.18;47.88
71643;BME280;59438;45.014;39.006;2022-08-19T12:00:58;100575.56;;;31.23;47.07
71643;BME280;59438;45.014;39.006;2022-08-19T12:03:25;100571.41;;;31.27;46.90
71643;BME280;59438;45.014;39.006;2022-08-19T12:05:51;100566.25;;;31.32;46.83
71643;BME280;59438;45.014;39.006;2022-08-19T12:08:18;100565.84;;;31.36;46.51
71643;BME280;59438;45.014;39.006;2022-08-19T12:10:46;100562.13;;;31.37;45.56
71643;BME280;59438;45.014;39.006;2022-08-19T12:13:13;100571.50;;;31.34;46.02
71643;BME280;59438;45.014;39.006;2022-08-19T12:15:40;100548.41;;;31.23;45.96
71643;BME280;59438;45.014;39.006;2022-08-19T12:18:07;100562.25;;;31.28;45.65
71643;BME280;59438;45.014;39.006;2022-08-19T12:20:35;100557.44;;;31.24;45.88
71643;BME280;59438;45.014;39.006;2022-08-19T12:23:01;100559.50;;;31.22;45.72
71643;BME280;59438;45.014;39.006;2022-08-19T12:25:28;100537.06;;;31.13;45.43
71643;BME280;59438;45.014;39.006;2022-08-19T12:27:56;100546.56;;;31.24;45.25
71643;BME280;59438;45.014;39.006;2022-08-19T12:30:22;100556.00;;;31.28;45.54
71643;BME280;59438;45.014;39.006;2022-08-19T12:32:48;100558.75;;;31.35;45.68
71643;BME280;59438;45.014;39.006;2022-08-19T12:35:15;100549.00;;;31.40;45.60
71643;BME280;59438;45.014;39.006;2022-08-19T12:37:41;100546.34;;;31.47;45.46
71643;BME280;59438;45.014;39.006;2022-08-19T12:40:09;100554.31;;;31.48;45.29
71643;BME280;59438;45.014;39.006;2022-08-19T12:42:35;100546.34;;;31.47;45.04